Time;durP1;ratioP1;P1;durP2;ratioP2;P2;SDS_P1;SDS_P2;PMS_P1;PMS_P2;Temp;Humidity;BMP_temperature;BMP_pressure;BME280_temperature;BME280_humidity;BME280_pressure;Samples;Min_cycle;Max_cycle;Signal;HPM_P1;HPM_P2
2022/05/17 00:02:01;;;;;;;8.00;7.20;;;;;;;15.82;73.77;99351.66;2620787;54;20546;-66
2022/05/17 00:04:30;;;;;;;8.77;7.65;;;;;;;15.89;73.52;99358.81;2620156;54;20034;-65
2022/05/17 00:07:00;;;;;;;12.65;8.25;;;;;;;15.89;72.91;99359.63;2622807;54;20045;-64
2022/05/17 00:09:30;;;;;;;9.68;8.02;;;;;;;15.79;73.53;99354.75;2623385;54;20665;-65
2022/05/17 00:12:03;;;;;;;8.65;7.55;;;;;;;15.75;73.63;99358.03;2623339;54;20031;-65
2022/05/17 00:14:34;;;;;;;9.02;7.60;;;;;;;15.76;73.75;99357.03;2623365;54;20086;-64
2022/05/17 00:17:04;;;;;;;8.65;7.75;;;;;;;15.74;73.53;99364.41;2622588;54;20030;-65
2022/05/17 00:19:34;;;;;;;8.63;7.82;;;;;;;15.76;73.34;99355.19;2622144;54;20030;-65
2022/05/17 00:22:04;;;;;;;9.82;8.00;;;;;;;15.65;73.45;99363.84;2622313;54;20141;-66
2022/05/17 00:24:34;;;;;;;10.38;7.15;;;;;;;15.61;73.43;99355.41;2621563;54;20037;-65
2022/05/17 00:27:08;;;;;;;11.38;7.13;;;;;;;15.62;73.59;99356.22;2618443;54;20026;-66
2022/05/17 00:29:38;;;;;;;8.48;7.68;;;;;;;15.54;73.55;99356.47;2618335;54;20050;-65
2022/05/17 00:32:08;;;;;;;9.57;7.63;;;;;;;15.36;73.91;99360.63;2618420;54;20035;-65
2022/05/17 00:34:38;;;;;;;7.93;7.15;;;;;;;15.39;74.01;99356.75;2618466;54;20029;-65
2022/05/17 00:37:09;;;;;;;9.27;8.18;;;;;;;15.32;74.31;99356.75;2618773;54;20573;-64
2022/05/17 00:39:38;;;;;;;10.23;8.18;;;;;;;15.33;74.50;99360.22;2618196;47;20567;-65
2022/05/17 00:42:11;;;;;;;9.98;8.30;;;;;;;15.41;74.11;99357.34;2618009;51;20027;-64
2022/05/17 00:44:47;;;;;;;10.38;7.85;;;;;;;15.30;73.69;99356.13;2618473;54;20566;-65
2022/05/17 00:47:21;;;;;;;9.55;8.52;;;;;;;15.15;74.07;99352.91;2618448;54;20034;-65
2022/05/17 00:49:54;;;;;;;9.23;8.38;;;;;;;15.02;74.84;99347.59;2617946;47;20030;-64
2022/05/17 00:52:28;;;;;;;10.98;8.38;;;;;;;14.98;74.73;99349.03;2618197;54;20038;-66
2022/05/17 00:55:01;;;;;;;9.48;8.57;;;;;;;14.90;75.52;99344.78;2618418;54;20030;-65
2022/05/17 00:57:41;;;;;;;8.70;7.80;;;;;;;14.86;75.10;99344.38;2617626;54;20026;-65
2022/05/17 01:00:16;;;;;;;8.93;8.02;;;;;;;14.80;75.34;99347.03;2617877;54;20046;-66
2022/05/17 01:02:50;;;;;;;8.02;7.15;;;;;;;14.79;76.02;99343.56;2618008;54;20041;-66
2022/05/17 01:05:22;;;;;;;8.93;7.82;;;;;;;14.90;75.66;99346.59;2618070;54;20026;-66
2022/05/17 01:07:55;;;;;;;9.43;8.52;;;;;;;14.87;75.29;99350.50;2617808;39;20459;-67
2022/05/17 01:10:29;;;;;;;9.00;8.10;;;;;;;14.78;75.82;99349.91;2618215;54;20019;-66
2022/05/17 01:15:44;;;;;;;10.15;7.90;;;;;;;14.79;76.08;99350.72;2618003;54;20043;-66
2022/05/17 01:18:14;;;;;;;9.43;8.50;;;;;;;14.82;75.29;99352.97;2618186;54;20444;-64
2022/05/17 01:20:44;;;;;;;10.68;8.45;;;;;;;14.71;75.52;99351.75;2617792;54;20026;-64
2022/05/17 01:23:16;;;;;;;9.43;8.35;;;;;;;14.59;75.43;99356.06;2618681;39;20446;-66
2022/05/17 01:25:46;;;;;;;8.63;7.80;;;;;;;14.59;76.02;99359.53;2618046;54;20037;-65
2022/05/17 01:28:22;;;;;;;7.85;7.13;;;;;;;14.63;75.98;99359.13;2617248;39;20439;-66
2022/05/17 01:30:52;;;;;;;10.95;8.05;;;;;;;14.70;75.75;99360.75;2618079;54;20034;-65
2022/05/17 01:33:23;;;;;;;10.13;7.60;;;;;;;14.70;75.48;99365.28;2617846;54;20022;-65
2022/05/17 01:35:53;;;;;;;9.45;7.90;;;;;;;14.69;75.34;99360.94;2618030;54;20538;-66
2022/05/17 01:38:25;;;;;;;9.07;7.88;;;;;;;14.68;75.73;99365.47;2617232;54;20038;-66
2022/05/17 01:40:54;;;;;;;11.00;7.15;;;;;;;14.66;75.59;99370.19;2618197;54;20593;-67
2022/05/17 01:43:24;;;;;;;9.95;7.25;;;;;;;14.72;75.93;99374.66;2618695;54;20037;-66
2022/05/17 01:45:54;;;;;;;9.02;7.68;;;;;;;14.72;75.12;99372.00;2618279;47;20050;-64
2022/05/17 01:48:23;;;;;;;9.60;7.28;;;;;;;14.61;75.49;99368.13;2618514;54;20592;-66
2022/05/17 01:50:53;;;;;;;8.15;7.35;;;;;;;14.52;75.59;99368.53;2618937;54;20061;-64
2022/05/17 01:53:25;;;;;;;10.52;7.93;;;;;;;14.43;75.70;99373.19;2619138;54;20134;-65
2022/05/17 01:55:55;;;;;;;8.77;7.10;;;;;;;14.43;76.21;99377.72;2618954;54;20042;-64
2022/05/17 01:58:24;;;;;;;9.98;7.47;;;;;;;14.53;75.91;99371.00;2618249;54;20030;-65
2022/05/17 02:00:54;;;;;;;8.80;7.68;;;;;;;14.59;75.55;99367.50;2618758;54;20037;-64
2022/05/17 02:03:25;;;;;;;8.88;7.30;;;;;;;14.50;75.68;99367.94;2617984;54;20030;-64
2022/05/17 02:05:54;;;;;;;11.10;8.10;;;;;;;14.41;75.10;99366.44;2618995;54;20597;-63
2022/05/17 02:08:26;;;;;;;9.05;7.93;;;;;;;14.28;75.63;99370.72;2618750;46;20081;-63
2022/05/17 02:10:56;;;;;;;8.75;7.88;;;;;;;14.20;75.80;99370.09;2619518;39;20434;-64
2022/05/17 02:13:26;;;;;;;9.30;7.93;;;;;;;14.14;76.48;99363.75;2618985;54;20038;-64
2022/05/17 02:15:55;;;;;;;9.25;8.45;;;;;;;14.15;76.18;99364.56;2618123;39;20351;-65
2022/05/17 02:18:25;;;;;;;9.93;7.63;;;;;;;14.00;76.66;99360.25;2619473;54;20042;-65
2022/05/17 02:20:54;;;;;;;8.93;8.13;;;;;;;14.08;76.73;99354.75;2620574;54;20026;-65
2022/05/17 02:23:27;;;;;;;8.27;7.47;;;;;;;14.09;76.53;99359.06;2619705;54;20039;-65
2022/05/17 02:25:57;;;;;;;9.27;8.30;;;;;;;14.06;76.52;99361.28;2618848;54;20038;-64
2022/05/17 02:28:26;;;;;;;10.88;8.35;;;;;;;14.05;76.70;99365.78;2618711;54;20161;-64
2022/05/17 02:30:56;;;;;;;7.90;7.05;;;;;;;14.11;76.92;99367.63;2618909;54;20039;-64
2022/05/17 02:33:26;;;;;;;10.68;8.30;;;;;;;14.23;76.41;99369.69;2618446;47;20142;-64
2022/05/17 02:35:55;;;;;;;9.85;7.22;;;;;;;14.25;76.09;99365.81;2618835;54;20026;-64
2022/05/17 02:38:28;;;;;;;8.57;7.78;;;;;;;14.28;75.56;99368.06;2618625;54;20599;-64
2022/05/17 02:40:57;;;;;;;8.40;7.60;;;;;;;14.22;75.71;99373.38;2618209;54;20048;-64
2022/05/17 02:43:27;;;;;;;13.73;8.90;;;;;;;14.13;75.24;99370.91;2618234;54;20046;-64
2022/05/17 02:45:56;;;;;;;10.23;8.68;;;;;;;14.00;75.41;99367.38;2617916;47;20042;-64
2022/05/17 02:48:26;;;;;;;10.23;7.65;;;;;;;13.95;75.97;99375.97;2618332;54;20030;-64
2022/05/17 02:50:56;;;;;;;8.80;7.90;;;;;;;13.93;76.54;99377.22;2618223;54;20037;-65
2022/05/17 02:53:28;;;;;;;14.18;7.30;;;;;;;13.99;76.35;99371.91;2618496;54;20086;-64
2022/05/17 02:55:57;;;;;;;8.77;7.70;;;;;;;14.06;75.84;99379.91;2618617;54;20034;-65
2022/05/17 02:58:27;;;;;;;8.68;7.88;;;;;;;14.03;76.02;99381.09;2618483;54;20062;-65
2022/05/17 03:00:57;;;;;;;8.20;7.40;;;;;;;14.03;76.19;99378.44;2618664;54;20034;-64
2022/05/17 03:03:26;;;;;;;10.55;8.48;;;;;;;14.01;76.54;99380.50;2618581;54;20029;-64
2022/05/17 03:05:58;;;;;;;8.38;7.57;;;;;;;14.01;75.62;99385.00;2619396;39;20434;-66
2022/05/17 03:08:30;;;;;;;8.52;7.65;;;;;;;13.91;75.77;99388.03;2624808;54;20038;-65
2022/05/17 03:11:00;;;;;;;9.63;7.07;;;;;;;13.90;75.68;99383.72;2624614;54;20030;-65
2022/05/17 03:13:29;;;;;;;8.38;7.40;;;;;;;13.84;76.40;99381.88;2624208;54;20046;-65
2022/05/17 03:15:59;;;;;;;8.82;7.68;;;;;;;13.94;75.56;99384.16;2622032;54;20042;-64
2022/05/17 03:18:29;;;;;;;7.32;6.50;;;;;;;13.80;76.03;99378.81;2618824;54;20038;-65
2022/05/17 03:20:59;;;;;;;10.13;7.43;;;;;;;13.75;75.92;99378.56;2618323;54;20070;-66
2022/05/17 03:23:31;;;;;;;8.55;7.65;;;;;;;13.72;76.16;99380.81;2618881;54;20033;-63
2022/05/17 03:26:00;;;;;;;12.32;10.98;;;;;;;13.82;76.35;99386.56;2618486;54;20027;-64
2022/05/17 03:28:30;;;;;;;13.30;10.85;;;;;;;13.92;75.28;99395.00;2617979;54;20057;-64
2022/05/17 03:31:00;;;;;;;8.70;7.85;;;;;;;13.88;75.56;99399.06;2618694;54;20043;-64
2022/05/17 03:33:29;;;;;;;10.70;8.18;;;;;;;13.94;75.65;99392.13;2618687;54;20050;-64
2022/05/17 03:35:59;;;;;;;10.13;7.95;;;;;;;13.85;75.23;99392.31;2618538;54;20550;-64
2022/05/17 03:38:32;;;;;;;8.20;7.50;;;;;;;13.81;74.97;99396.38;2618909;39;20442;-64
2022/05/17 03:41:02;;;;;;;8.82;7.60;;;;;;;13.84;74.93;99389.88;2618575;54;20073;-65
2022/05/17 03:43:33;;;;;;;8.77;6.97;;;;;;;13.86;74.98;99401.91;2618528;54;20035;-64
2022/05/17 03:46:02;;;;;;;9.30;8.40;;;;;;;13.92;74.28;99402.97;2618530;54;20061;-64
2022/05/17 03:48:32;;;;;;;9.52;7.55;;;;;;;13.76;74.13;99398.00;2618985;39;20446;-64
2022/05/17 03:51:02;;;;;;;8.23;7.25;;;;;;;13.76;75.01;99398.00;2618592;54;20054;-64
2022/05/17 03:53:34;;;;;;;8.32;7.43;;;;;;;13.80;74.13;99404.56;2617734;54;20022;-65
2022/05/17 03:56:03;;;;;;;9.63;8.68;;;;;;;13.80;74.51;99400.06;2618151;54;20034;-64
2022/05/17 03:58:33;;;;;;;10.68;7.93;;;;;;;13.71;74.13;99398.56;2618759;51;20061;-64
2022/05/17 04:01:02;;;;;;;9.93;8.90;;;;;;;13.64;74.89;99405.72;2617869;54;20034;-64
2022/05/17 04:03:32;;;;;;;10.80;8.40;;;;;;;13.74;74.85;99402.69;2618684;39;20398;-64
2022/05/17 04:06:03;;;;;;;9.48;8.48;;;;;;;13.87;74.27;99406.19;2618210;54;20033;-65
2022/05/17 04:08:36;;;;;;;8.70;6.72;;;;;;;13.82;73.99;99403.31;2618287;54;20045;-64
2022/05/17 04:11:06;;;;;;;12.15;8.50;;;;;;;13.97;74.31;99397.06;2618622;54;20038;-65
2022/05/17 04:13:37;;;;;;;10.07;7.20;;;;;;;14.03;73.69;99404.22;2618548;54;20030;-65
2022/05/17 04:16:07;;;;;;;8.20;7.13;;;;;;;14.04;73.71;99408.50;2618828;54;20034;-65
2022/05/17 04:18:36;;;;;;;12.07;10.40;;;;;;;14.04;73.50;99404.03;2617753;54;20030;-65
2022/05/17 04:21:07;;;;;;;11.85;9.20;;;;;;;14.05;73.48;99407.50;2617765;54;20031;-64
2022/05/17 04:23:39;;;;;;;8.73;7.30;;;;;;;14.06;73.58;99411.78;2618081;54;20023;-65
2022/05/17 04:26:09;;;;;;;11.38;7.95;;;;;;;14.12;73.18;99414.47;2617950;54;20034;-64
2022/05/17 04:28:38;;;;;;;7.60;6.90;;;;;;;14.17;73.33;99413.88;2617361;54;20035;-64
2022/05/17 04:31:08;;;;;;;10.18;7.38;;;;;;;14.31;72.85;99418.19;2618397;39;20427;-64
2022/05/17 04:33:37;;;;;;;7.93;6.75;;;;;;;14.36;72.60;99409.59;2618320;54;20048;-64
2022/05/17 04:36:08;;;;;;;8.95;7.20;;;;;;;14.25;72.23;99408.38;2617931;50;20050;-64
2022/05/17 04:38:40;;;;;;;7.65;6.95;;;;;;;14.31;72.63;99420.03;2617723;47;20031;-66
2022/05/17 04:41:10;;;;;;;11.85;8.23;;;;;;;14.43;72.78;99423.75;2618682;54;20034;-64
2022/05/17 04:43:40;;;;;;;12.43;11.13;;;;;;;14.53;71.69;99423.38;2618146;54;20054;-63
2022/05/17 04:46:11;;;;;;;10.38;9.25;;;;;;;14.64;71.83;99429.94;2618133;54;20034;-64
2022/05/17 04:48:41;;;;;;;9.27;8.32;;;;;;;14.71;72.22;99425.44;2618295;54;20058;-65
2022/05/17 04:51:13;;;;;;;8.50;7.63;;;;;;;14.78;71.45;99428.94;2618121;54;20037;-64
2022/05/17 04:53:46;;;;;;;8.43;7.13;;;;;;;14.95;71.39;99429.34;2618642;54;20033;-64
2022/05/17 04:56:19;;;;;;;8.85;7.65;;;;;;;15.09;71.25;99420.31;2618896;54;20126;-65
2022/05/17 04:58:49;;;;;;;8.93;7.35;;;;;;;15.24;70.77;99428.91;2621433;54;20041;-64
2022/05/17 05:01:19;;;;;;;11.73;7.30;;;;;;;15.30;70.81;99420.06;2620808;54;20038;-64
2022/05/17 05:03:48;;;;;;;7.32;6.72;;;;;;;15.41;70.39;99423.13;2621542;46;20050;-66
2022/05/17 05:06:18;;;;;;;8.25;7.13;;;;;;;15.44;70.51;99433.38;2620958;54;20030;-64
2022/05/17 05:08:50;;;;;;;10.60;7.90;;;;;;;15.41;70.24;99421.28;2620620;54;20034;-66
2022/05/17 05:11:20;;;;;;;9.20;8.32;;;;;;;15.44;70.17;99423.53;2621152;54;20030;-66
2022/05/17 05:13:50;;;;;;;10.55;8.40;;;;;;;15.48;70.17;99424.75;2620899;54;20026;-66
2022/05/17 05:16:19;;;;;;;15.63;9.60;;;;;;;15.52;69.81;99425.97;2621031;54;20022;-66
2022/05/17 05:18:49;;;;;;;10.68;8.95;;;;;;;15.39;69.82;99423.34;2618498;54;20038;-65
2022/05/17 05:21:19;;;;;;;10.30;7.32;;;;;;;15.36;70.13;99429.09;2618937;54;20061;-65
2022/05/17 05:23:52;;;;;;;10.15;8.45;;;;;;;15.26;70.33;99434.81;2618644;54;20053;-66
2022/05/17 05:26:22;;;;;;;12.02;8.95;;;;;;;15.27;70.29;99433.00;2618959;54;20034;-66
2022/05/17 05:28:52;;;;;;;9.25;7.78;;;;;;;15.46;70.46;99433.97;2619189;54;20030;-64
2022/05/17 05:31:22;;;;;;;11.23;8.25;;;;;;;15.61;70.27;99432.69;2619246;54;20038;-66
2022/05/17 05:33:52;;;;;;;12.30;8.98;;;;;;;15.54;70.03;99439.06;2619278;54;20030;-64
2022/05/17 05:36:22;;;;;;;11.82;8.25;;;;;;;15.73;69.85;99438.22;2619310;54;20035;-65
2022/05/17 05:38:54;;;;;;;9.25;8.43;;;;;;;16.00;69.41;99443.44;2618763;54;20034;-66
2022/05/17 05:41:24;;;;;;;10.63;9.30;;;;;;;16.20;69.12;99438.00;2618866;54;20129;-65
2022/05/17 05:43:53;;;;;;;11.15;7.50;;;;;;;16.29;68.63;99440.25;2618450;46;20031;-66
2022/05/17 05:46:23;;;;;;;9.07;8.18;;;;;;;16.49;68.31;99437.47;2619198;54;20030;-65
2022/05/17 05:48:53;;;;;;;10.82;9.27;;;;;;;16.63;67.25;99442.69;2618515;54;20143;-65
2022/05/17 05:51:24;;;;;;;9.80;8.45;;;;;;;16.68;67.85;99435.66;2619181;54;20031;-65
2022/05/17 05:53:57;;;;;;;11.80;9.70;;;;;;;16.80;67.05;99446.50;2619119;54;20530;-65
2022/05/17 05:56:26;;;;;;;9.50;8.40;;;;;;;16.89;67.08;99447.84;2619258;54;20041;-66
2022/05/17 05:58:56;;;;;;;13.27;9.90;;;;;;;16.89;66.30;99447.03;2618190;54;20151;-65
2022/05/17 06:01:26;;;;;;;9.98;9.02;;;;;;;16.86;66.75;99452.81;2618714;54;20045;-65
2022/05/17 06:03:56;;;;;;;17.05;9.80;;;;;;;16.88;66.64;99453.41;2618509;54;20033;-64
2022/05/17 06:06:26;;;;;;;10.73;9.60;;;;;;;17.05;66.72;99455.31;2618088;51;20057;-64
2022/05/17 06:08:59;;;;;;;16.95;12.80;;;;;;;17.22;66.81;99454.75;2618166;47;20034;-65
2022/05/17 06:11:30;;;;;;;10.77;9.50;;;;;;;17.41;66.16;99445.75;2618394;47;20030;-63
2022/05/17 06:14:00;;;;;;;10.57;9.23;;;;;;;17.54;65.46;99442.13;2618528;54;20026;-63
2022/05/17 06:16:30;;;;;;;9.63;8.63;;;;;;;17.60;65.56;99446.59;2619711;39;20403;-63
2022/05/17 06:18:59;;;;;;;12.48;9.88;;;;;;;17.69;65.18;99450.59;2618731;46;20041;-64
2022/05/17 06:21:29;;;;;;;12.10;9.18;;;;;;;17.67;64.92;99446.50;2618919;54;20054;-63
2022/05/17 06:24:02;;;;;;;10.48;9.38;;;;;;;17.65;64.87;99452.06;2618800;54;20546;-63
2022/05/17 06:26:31;;;;;;;13.13;9.73;;;;;;;17.76;64.97;99453.22;2618537;54;20083;-65
2022/05/17 06:29:02;;;;;;;11.38;10.05;;;;;;;17.91;64.65;99452.84;2618669;54;20039;-63
2022/05/17 06:31:32;;;;;;;13.75;9.55;;;;;;;18.02;64.57;99460.09;2619069;39;20396;-63
2022/05/17 06:34:02;;;;;;;14.20;10.93;;;;;;;18.11;64.46;99463.28;2619374;54;20026;-66
2022/05/17 06:36:32;;;;;;;12.55;10.45;;;;;;;18.12;64.06;99462.25;2621776;31;20484;-64
2022/05/17 06:39:24;;;;;;;9.98;8.98;;;;;;;18.24;64.50;99463.09;2620454;54;20041;-63
2022/05/17 06:41:55;;;;;;;11.45;10.25;;;;;;;18.37;64.55;99465.63;2621695;54;20070;-63
2022/05/17 06:44:25;;;;;;;12.27;9.85;;;;;;;18.48;64.08;99456.81;2622997;54;20069;-65
2022/05/17 06:46:56;;;;;;;11.07;9.55;;;;;;;18.58;63.88;99460.81;2622589;54;20034;-65
2022/05/17 06:49:26;;;;;;;11.80;9.48;;;;;;;18.69;64.34;99458.13;2621826;54;20086;-64
2022/05/17 06:51:57;;;;;;;13.57;9.43;;;;;;;18.78;64.06;99456.81;2620796;51;20039;-64
2022/05/17 06:54:29;;;;;;;12.75;9.75;;;;;;;18.85;63.99;99458.56;2620635;54;20102;-63
2022/05/17 06:56:59;;;;;;;11.15;9.10;;;;;;;18.84;63.83;99451.56;2621323;54;20049;-65
2022/05/17 06:59:31;;;;;;;11.40;9.57;;;;;;;18.84;63.68;99459.59;2621068;54;20033;-65
2022/05/17 07:02:02;;;;;;;12.13;9.93;;;;;;;18.85;63.45;99462.03;2621786;54;20022;-65
2022/05/17 07:04:33;;;;;;;11.60;8.68;;;;;;;18.88;63.80;99456.22;2620944;54;20279;-65
2022/05/17 07:07:03;;;;;;;10.52;8.40;;;;;;;18.99;64.09;99452.75;2619758;54;20035;-65
2022/05/17 07:09:37;;;;;;;10.13;8.27;;;;;;;19.13;63.57;99453.34;2619168;54;20038;-66
2022/05/17 07:14:53;;;;;;;9.30;8.30;;;;;;;19.37;62.50;99456.03;2618530;54;19946;-65
2022/05/17 07:17:24;;;;;;;11.82;8.48;;;;;;;19.36;62.65;99455.22;2619089;54;20038;-64
2022/05/17 07:19:54;;;;;;;10.57;8.05;;;;;;;19.41;62.00;99457.19;2619559;54;20041;-65
2022/05/17 07:22:23;;;;;;;10.40;8.38;;;;;;;19.50;61.75;99458.47;2619124;54;20111;-65
2022/05/17 07:24:56;;;;;;;12.23;8.07;;;;;;;19.63;61.09;99458.25;2618756;54;20030;-63
2022/05/17 07:27:33;;;;;;;8.45;7.68;;;;;;;19.73;60.45;99461.16;2619084;54;20583;-65
2022/05/17 07:30:03;;;;;;;8.35;7.05;;;;;;;19.83;60.63;99451.69;2618974;54;20133;-64
2022/05/17 07:32:32;;;;;;;8.68;7.70;;;;;;;20.02;60.32;99453.97;2618497;47;20034;-66
2022/05/17 07:35:02;;;;;;;9.85;8.07;;;;;;;20.20;59.22;99457.50;2618741;54;20030;-63
2022/05/17 07:37:32;;;;;;;9.77;7.35;;;;;;;20.29;58.92;99456.09;2619187;39;20443;-62
2022/05/17 07:40:06;;;;;;;10.98;6.82;;;;;;;20.38;57.92;99446.59;2618453;47;20050;-63
2022/05/17 07:42:36;;;;;;;7.60;6.03;;;;;;;20.45;57.01;99449.94;2618318;54;20031;-64
2022/05/17 07:45:07;;;;;;;9.40;6.22;;;;;;;20.50;56.58;99447.38;2619184;39;20404;-66
2022/05/17 07:47:37;;;;;;;7.60;6.03;;;;;;;20.57;56.51;99452.59;2618075;47;20096;-66
2022/05/17 07:50:08;;;;;;;7.82;5.15;;;;;;;20.73;56.63;99456.34;2619000;54;20034;-66
2022/05/17 07:52:38;;;;;;;6.22;5.18;;;;;;;20.94;55.90;99457.50;2618680;47;20027;-64
2022/05/17 07:55:12;;;;;;;9.32;5.35;;;;;;;21.13;55.16;99463.44;2618288;54;20038;-65
2022/05/17 07:57:42;;;;;;;7.00;3.45;;;;;;;21.25;53.45;99451.53;2618770;54;20023;-67
2022/05/17 09:19:36;;;;;;;3.28;2.55;;;;;;;23.69;43.98;99421.94;2594741;47;20041;-66
2022/05/17 09:22:07;;;;;;;4.70;2.92;;;;;;;23.63;43.62;99410.25;2620306;54;20041;-66
2022/05/17 09:24:40;;;;;;;6.15;2.72;;;;;;;23.52;44.23;99418.59;2621301;54;20022;-66
2022/05/17 09:27:13;;;;;;;7.82;3.42;;;;;;;23.77;43.13;99416.03;2620513;47;20035;-66
2022/05/17 09:29:47;;;;;;;6.45;3.30;;;;;;;23.83;43.16;99412.25;2619109;54;20037;-66
2022/05/17 09:32:28;;;;;;;6.38;2.63;;;;;;;23.94;43.23;99405.00;2618543;54;20030;-66
2022/05/17 09:35:05;;;;;;;4.47;2.63;;;;;;;23.95;43.52;99412.03;2619861;54;20030;-67
2022/05/17 09:37:39;;;;;;;4.68;2.83;;;;;;;24.10;43.11;99403.16;2617543;54;20035;-67
2022/05/17 09:40:13;;;;;;;8.27;3.33;;;;;;;24.37;42.25;99405.63;2617614;54;20032;-67
2022/05/17 09:42:54;;;;;;;5.20;3.00;;;;;;;24.36;41.83;99401.31;2617206;54;20173;-66
2022/05/17 09:45:39;;;;;;;4.60;3.10;;;;;;;24.32;42.21;99395.63;2617678;54;20035;-67
2022/05/17 09:48:12;;;;;;;5.25;2.92;;;;;;;24.29;42.08;99395.34;2617569;54;20026;-65
2022/05/17 09:53:46;;;;;;;3.50;2.70;;;;;;;23.88;42.39;99392.56;2616996;54;20027;-65
2022/05/17 09:56:17;;;;;;;5.15;2.78;;;;;;;24.12;41.67;99396.41;2617399;47;20026;-65
2022/05/17 09:58:48;;;;;;;4.15;2.55;;;;;;;24.23;41.83;99391.84;2617579;54;20035;-66
2022/05/17 10:01:28;;;;;;;5.78;3.03;;;;;;;24.27;42.14;99387.53;2617181;54;20029;-66
2022/05/17 10:04:06;;;;;;;5.88;3.10;;;;;;;24.26;42.14;99385.09;2618950;54;20026;-67
2022/05/17 10:06:41;;;;;;;6.88;2.78;;;;;;;24.22;41.93;99388.34;2619407;47;20030;-67
2022/05/17 10:09:14;;;;;;;3.70;2.50;;;;;;;24.40;41.87;99383.50;2620215;54;20649;-68
2022/05/17 10:11:46;;;;;;;3.72;2.60;;;;;;;24.56;41.53;99379.72;2620168;54;20102;-67
2022/05/17 10:14:31;;;;;;;3.95;2.47;;;;;;;24.75;41.28;99380.00;2619985;54;20034;-68
2022/05/17 10:17:04;;;;;;;4.45;2.88;;;;;;;24.75;40.78;99368.38;2620071;54;20030;-68
2022/05/17 10:19:44;;;;;;;5.95;2.80;;;;;;;24.79;40.66;99380.28;2619735;54;20031;-68
2022/05/17 10:22:27;;;;;;;4.25;2.60;;;;;;;24.73;40.51;99374.06;2619880;54;20034;-68
2022/05/17 10:25:00;;;;;;;;;;;;;;;24.69;41.02;99371.06;2620035;54;20153;-69
2022/05/17 10:27:35;;;;;;;5.80;2.97;;;;;;;24.62;40.52;99357.03;2622159;54;19947;-67
2022/05/17 10:30:10;;;;;;;5.45;2.72;;;;;;;24.68;40.33;99364.06;2624535;47;20031;-67
2022/05/17 10:32:48;;;;;;;3.88;2.58;;;;;;;24.51;40.02;99368.94;2626484;39;20402;-67
2022/05/17 10:35:24;;;;;;;4.00;2.40;;;;;;;24.39;40.82;99366.50;2624580;54;20034;-67
2022/05/17 10:38:07;;;;;;;5.68;2.72;;;;;;;24.61;40.20;99363.50;2625305;54;20130;-68
2022/05/17 10:40:43;;;;;;;4.40;2.35;;;;;;;24.80;40.21;99369.19;2625384;54;20034;-68
2022/05/17 10:43:17;;;;;;;3.25;2.50;;;;;;;25.11;39.02;99364.56;2624825;54;20026;-68
2022/05/17 10:45:50;;;;;;;3.65;2.05;;;;;;;25.34;37.11;99356.91;2619963;54;20031;-67
2022/05/17 10:48:31;;;;;;;5.22;2.00;;;;;;;25.34;37.70;99355.00;2619739;54;20042;-68
2022/05/17 10:51:08;;;;;;;2.78;2.00;;;;;;;25.39;37.52;99357.72;2620165;54;20032;-68
2022/05/17 10:53:57;;;;;;;3.05;2.10;;;;;;;25.54;37.17;99356.03;2620755;54;20037;-67
2022/05/17 10:56:47;;;;;;;5.68;2.63;;;;;;;25.59;36.59;99354.09;2621107;54;20030;-68
2022/05/17 10:59:28;;;;;;;5.15;2.17;;;;;;;25.38;36.48;99349.88;2621432;54;20045;-68
2022/05/17 11:02:08;;;;;;;4.63;2.67;;;;;;;25.29;37.34;99348.81;2620598;54;20558;-67
2022/05/17 11:05:04;;;;;;;3.67;2.30;;;;;;;25.51;37.22;99345.75;2621122;54;20043;-68
2022/05/17 11:07:50;;;;;;;5.05;2.53;;;;;;;25.73;36.90;99334.56;2619626;54;20038;-67
2022/05/17 11:10:33;;;;;;;3.70;1.75;;;;;;;25.85;36.03;99335.06;2618417;54;20053;-67
2022/05/17 11:13:13;;;;;;;4.15;2.25;;;;;;;25.86;36.00;99345.59;2618612;54;20034;-67
2022/05/17 11:15:49;;;;;;;3.15;2.20;;;;;;;25.81;35.67;99337.53;2619403;39;20132;-68
2022/05/17 11:18:25;;;;;;;2.47;1.90;;;;;;;25.79;35.59;99339.69;2619060;54;20069;-65
2022/05/17 11:21:01;;;;;;;3.03;1.75;;;;;;;25.73;35.66;99327.25;2619592;54;20049;-67
2022/05/17 11:23:50;;;;;;;3.03;2.30;;;;;;;25.68;35.65;99324.56;2619973;54;20034;-68
2022/05/17 11:26:44;;;;;;;3.47;1.83;;;;;;;25.72;35.60;99327.50;2619266;54;20035;-67
2022/05/17 11:29:44;;;;;;;2.47;1.83;;;;;;;25.83;35.65;99326.41;2620128;54;20034;-68
2022/05/17 11:32:27;;;;;;;10.13;2.05;;;;;;;26.05;35.34;99318.69;2619579;54;20035;-68
2022/05/17 11:34:58;;;;;;;2.28;2.08;;;;;;;26.32;35.29;99320.91;2619722;54;20041;-67
2022/05/17 11:37:48;;;;;;;2.95;2.22;;;;;;;26.58;34.67;99316.09;2619125;54;20026;-68
2022/05/17 11:40:50;;;;;;;4.03;1.80;;;;;;;26.71;34.19;99316.53;2620155;54;20030;-68
2022/05/17 11:43:45;;;;;;;3.83;2.20;;;;;;;26.93;33.45;99309.50;2620622;54;20046;-67
2022/05/17 11:46:43;;;;;;;2.53;1.65;;;;;;;26.83;33.73;99304.19;2620297;54;20038;-66
2022/05/17 11:49:41;;;;;;;2.92;2.20;;;;;;;26.74;33.20;99305.09;2619883;31;20502;-66
2022/05/17 11:52:34;;;;;;;3.10;2.13;;;;;;;26.62;33.94;99297.38;2619199;54;20053;-67
2022/05/17 11:55:09;;;;;;;2.22;1.80;;;;;;;26.47;34.10;99292.88;2618660;39;20442;-66
2022/05/17 11:58:03;;;;;;;8.50;2.10;;;;;;;26.13;33.78;99293.69;2618230;54;20027;-66
2022/05/17 12:00:45;;;;;;;2.47;2.08;;;;;;;25.90;34.38;99288.97;2617609;54;20091;-67
2022/05/17 12:03:53;;;;;;;4.20;2.50;;;;;;;26.11;34.63;99286.94;2617726;47;20585;-66
2022/05/17 12:07:04;;;;;;;3.28;2.13;;;;;;;26.18;34.76;99290.94;2618208;54;20347;-66
2022/05/17 12:09:39;;;;;;;2.75;2.13;;;;;;;26.29;33.69;99285.41;2618355;54;20569;-66
2022/05/17 12:12:29;;;;;;;2.50;2.30;;;;;;;26.36;33.76;99281.28;2617679;54;20034;-69
2022/05/17 12:15:19;;;;;;;2.67;2.20;;;;;;;26.39;33.22;99282.63;2617620;47;20043;-67
2022/05/17 12:18:01;;;;;;;3.53;2.05;;;;;;;26.35;33.65;99274.25;2618344;54;20046;-68
2022/05/17 12:20:42;;;;;;;2.47;1.83;;;;;;;26.31;33.23;99273.22;2618315;54;20035;-67
2022/05/17 12:23:19;;;;;;;4.60;2.05;;;;;;;26.28;33.52;99267.56;2618782;39;20415;-67
2022/05/17 12:25:57;;;;;;;3.88;2.10;;;;;;;26.27;33.44;99266.75;2618102;54;20034;-67
2022/05/17 12:28:46;;;;;;;4.47;1.77;;;;;;;26.29;33.17;99264.56;2618038;54;20065;-67
2022/05/17 12:31:21;;;;;;;4.35;2.33;;;;;;;26.32;33.31;99258.56;2617695;54;20621;-67
2022/05/17 12:33:53;;;;;;;4.22;2.28;;;;;;;26.28;33.06;99256.72;2617723;47;20038;-68
2022/05/17 12:36:25;;;;;;;2.88;2.35;;;;;;;26.37;33.69;99249.56;2618175;54;20038;-67
2022/05/17 12:44:26;;;;;;;9.00;2.65;;;;;;;26.55;33.59;99243.47;2617919;54;20027;-67
2022/05/17 12:47:00;;;;;;;2.95;2.10;;;;;;;26.73;33.52;99235.69;2620594;54;20030;-67
2022/05/17 12:49:34;;;;;;;4.45;2.60;;;;;;;26.99;32.95;99241.66;2623893;54;20122;-67
2022/05/17 12:52:15;;;;;;;2.97;2.05;;;;;;;27.11;33.07;99233.94;2623107;47;20061;-68
2022/05/17 12:54:44;;;;;;;4.70;2.60;;;;;;;27.23;33.09;99236.19;2620866;47;20033;-68
2022/05/17 12:57:20;;;;;;;4.18;2.20;;;;;;;27.19;32.42;99236.00;2618847;47;20030;-68
2022/05/17 12:59:50;;;;;;;2.70;2.15;;;;;;;27.19;32.62;99229.72;2620291;54;20158;-67
2022/05/17 13:02:25;;;;;;;4.35;2.03;;;;;;;27.13;32.26;99229.81;2620194;54;20587;-67
2022/05/17 13:04:57;;;;;;;3.17;2.15;;;;;;;27.17;32.26;99225.41;2620230;54;20034;-67
2022/05/17 13:07:27;;;;;;;2.28;1.67;;;;;;;27.36;31.75;99230.06;2620405;54;20030;-67
2022/05/17 13:09:59;;;;;;;3.33;1.92;;;;;;;27.63;31.83;99223.94;2619344;54;20039;-68
2022/05/17 13:12:33;;;;;;;3.63;1.80;;;;;;;27.74;31.62;99213.78;2622793;39;20563;-68
2022/05/17 13:15:07;;;;;;;2.38;1.90;;;;;;;27.83;30.54;99210.09;2621788;54;20541;-67
2022/05/17 13:17:41;;;;;;;3.22;2.47;;;;;;;27.74;31.33;99206.44;2623047;54;20081;-68
2022/05/17 13:20:17;;;;;;;4.53;2.00;;;;;;;27.87;30.96;99208.38;2621976;54;20041;-69
2022/05/17 13:22:48;;;;;;;2.70;1.90;;;;;;;27.96;30.63;99197.66;2621848;54;20023;-67
2022/05/17 13:25:21;;;;;;;3.42;2.83;;;;;;;28.13;30.74;99197.91;2621776;54;20046;-68
2022/05/17 13:27:53;;;;;;;3.22;2.33;;;;;;;28.36;30.15;99198.06;2622489;54;20064;-68
2022/05/17 13:30:30;;;;;;;2.92;1.85;;;;;;;28.35;29.44;99191.00;2622588;54;20033;-68
2022/05/17 13:33:01;;;;;;;4.03;1.83;;;;;;;28.51;29.74;99192.34;2622473;54;20031;-68
2022/05/17 13:35:36;;;;;;;4.00;2.08;;;;;;;28.72;29.54;99184.59;2621534;54;20546;-68